sensor_id;sensor_type;location;lat;lon;timestamp;pressure;altitude;pressure_sealevel;temperature;humidity
44140;BME280;29803;51.048;4.686;2022-08-20T00:01:12;101589.13;;;18.20;100.00
44140;BME280;29803;51.048;4.686;2022-08-20T00:03:43;101583.66;;;18.13;100.00
44140;BME280;29803;51.048;4.686;2022-08-20T00:06:17;101582.13;;;18.04;100.00
44140;BME280;29803;51.048;4.686;2022-08-20T00:08:49;101587.91;;;17.94;100.00
44140;BME280;29803;51.048;4.686;2022-08-20T00:11:24;101582.59;;;17.86;100.00
44140;BME280;29803;51.048;4.686;2022-08-20T00:13:57;101589.03;;;17.78;100.00
44140;BME280;29803;51.048;4.686;2022-08-20T00:16:32;101596.91;;;17.73;100.00
44140;BME280;29803;51.048;4.686;2022-08-20T00:19:06;101599.97;;;17.70;100.00
44140;BME280;29803;51.048;4.686;2022-08-20T00:21:37;101597.66;;;17.67;100.00
44140;BME280;29803;51.048;4.686;2022-08-20T00:24:08;101591.13;;;17.61;100.00
44140;BME280;29803;51.048;4.686;2022-08-20T00:26:39;101603.41;;;17.57;100.00
44140;BME280;29803;51.048;4.686;2022-08-20T00:29:09;101610.25;;;17.53;100.00
44140;BME280;29803;51.048;4.686;2022-08-20T00:31:40;101612.13;;;17.53;100.00
44140;BME280;29803;51.048;4.686;2022-08-20T00:34:10;101606.72;;;17.53;100.00
44140;BME280;29803;51.048;4.686;2022-08-20T00:36:41;101611.09;;;17.54;100.00
44140;BME280;29803;51.048;4.686;2022-08-20T00:39:11;101614.66;;;17.54;100.00
44140;BME280;29803;51.048;4.686;2022-08-20T00:41:42;101613.81;;;17.54;100.00
44140;BME280;29803;51.048;4.686;2022-08-20T00:44:16;101607.72;;;17.52;100.00
44140;BME280;29803;51.048;4.686;2022-08-20T00:46:48;101609.53;;;17.45;100.00
44140;BME280;29803;51.048;4.686;2022-08-20T00:49:23;101613.50;;;17.42;100.00
44140;BME280;29803;51.048;4.686;2022-08-20T00:57:06;101611.09;;;17.32;100.00
44140;BME280;29803;51.048;4.686;2022-08-20T00:59:39;101602.50;;;17.29;100.00
44140;BME280;29803;51.048;4.686;2022-08-20T01:02:13;101602.44;;;17.22;100.00
44140;BME280;29803;51.048;4.686;2022-08-20T01:04:44;101601.97;;;17.19;100.00
44140;BME280;29803;51.048;4.686;2022-08-20T01:07:35;101604.22;;;17.15;100.00
44140;BME280;29803;51.048;4.686;2022-08-20T01:10:12;101606.09;;;17.15;100.00
44140;BME280;29803;51.048;4.686;2022-08-20T01:12:46;101604.41;;;17.14;100.00
44140;BME280;29803;51.048;4.686;2022-08-20T01:15:19;101598.06;;;17.06;100.00
44140;BME280;29803;51.048;4.686;2022-08-20T01:17:53;101602.38;;;17.01;100.00
44140;BME280;29803;51.048;4.686;2022-08-20T01:20:31;101608.34;;;16.96;100.00
44140;BME280;29803;51.048;4.686;2022-08-20T01:29:05;101609.69;;;16.86;100.00
44140;BME280;29803;51.048;4.686;2022-08-20T01:31:38;101612.78;;;16.82;100.00
44140;BME280;29803;51.048;4.686;2022-08-20T01:34:12;101610.81;;;16.76;100.00
44140;BME280;29803;51.048;4.686;2022-08-20T01:36:47;101611.09;;;16.67;100.00
44140;BME280;29803;51.048;4.686;2022-08-20T01:39:23;101613.69;;;16.60;100.00
44140;BME280;29803;51.048;4.686;2022-08-20T01:42:10;101615.47;;;16.53;100.00
44140;BME280;29803;51.048;4.686;2022-08-20T01:44:44;101611.81;;;16.46;100.00
44140;BME280;29803;51.048;4.686;2022-08-20T01:47:25;101617.34;;;16.38;100.00
44140;BME280;29803;51.048;4.686;2022-08-20T01:49:59;101608.56;;;16.36;100.00
44140;BME280;29803;51.048;4.686;2022-08-20T01:52:54;101608.47;;;16.29;100.00
44140;BME280;29803;51.048;4.686;2022-08-20T01:55:27;101602.94;;;16.22;100.00
44140;BME280;29803;51.048;4.686;2022-08-20T01:57:59;101617.03;;;16.18;100.00
44140;BME280;29803;51.048;4.686;2022-08-20T02:00:33;101609.47;;;16.13;100.00
44140;BME280;29803;51.048;4.686;2022-08-20T02:03:05;101610.22;;;16.07;100.00
44140;BME280;29803;51.048;4.686;2022-08-20T02:05:37;101603.47;;;16.03;100.00
44140;BME280;29803;51.048;4.686;2022-08-20T02:08:07;101609.25;;;16.00;100.00
44140;BME280;29803;51.048;4.686;2022-08-20T02:10:54;101605.06;;;15.97;100.00
44140;BME280;29803;51.048;4.686;2022-08-20T02:13:25;101617.25;;;15.93;100.00
44140;BME280;29803;51.048;4.686;2022-08-20T02:16:10;101611.91;;;15.85;100.00
44140;BME280;29803;51.048;4.686;2022-08-20T02:18:41;101625.16;;;15.80;100.00
44140;BME280;29803;51.048;4.686;2022-08-20T02:21:11;101613.38;;;15.73;100.00
44140;BME280;29803;51.048;4.686;2022-08-20T02:23:42;101618.50;;;15.68;100.00
44140;BME280;29803;51.048;4.686;2022-08-20T02:26:12;101618.31;;;15.61;100.00
44140;BME280;29803;51.048;4.686;2022-08-20T02:28:46;101614.97;;;15.59;100.00
44140;BME280;29803;51.048;4.686;2022-08-20T02:31:20;101617.56;;;15.52;100.00
44140;BME280;29803;51.048;4.686;2022-08-20T02:33:51;101613.53;;;15.48;100.00
44140;BME280;29803;51.048;4.686;2022-08-20T02:36:22;101610.34;;;15.45;100.00
44140;BME280;29803;51.048;4.686;2022-08-20T02:38:52;101618.16;;;15.40;100.00
44140;BME280;29803;51.048;4.686;2022-08-20T02:41:23;101615.63;;;15.38;100.00
44140;BME280;29803;51.048;4.686;2022-08-20T02:43:53;101618.69;;;15.35;100.00
44140;BME280;29803;51.048;4.686;2022-08-20T02:46:24;101620.91;;;15.32;100.00
44140;BME280;29803;51.048;4.686;2022-08-20T02:48:55;101623.31;;;15.26;100.00
44140;BME280;29803;51.048;4.686;2022-08-20T02:51:26;101624.69;;;15.22;100.00
44140;BME280;29803;51.048;4.686;2022-08-20T02:53:56;101627.25;;;15.16;100.00
44140;BME280;29803;51.048;4.686;2022-08-20T02:56:27;101623.38;;;15.10;100.00
44140;BME280;29803;51.048;4.686;2022-08-20T02:58:57;101620.22;;;15.07;100.00
44140;BME280;29803;51.048;4.686;2022-08-20T03:01:28;101624.78;;;15.06;100.00
44140;BME280;29803;51.048;4.686;2022-08-20T03:04:00;101623.75;;;15.07;100.00
44140;BME280;29803;51.048;4.686;2022-08-20T03:06:31;101621.72;;;15.09;100.00
44140;BME280;29803;51.048;4.686;2022-08-20T03:09:02;101621.72;;;15.09;100.00
44140;BME280;29803;51.048;4.686;2022-08-20T03:11:35;101618.81;;;15.11;100.00
44140;BME280;29803;51.048;4.686;2022-08-20T03:14:06;101615.97;;;15.12;100.00
44140;BME280;29803;51.048;4.686;2022-08-20T03:16:36;101617.81;;;15.12;100.00
44140;BME280;29803;51.048;4.686;2022-08-20T03:19:07;101623.03;;;15.13;100.00
44140;BME280;29803;51.048;4.686;2022-08-20T03:21:37;101614.75;;;15.15;100.00
44140;BME280;29803;51.048;4.686;2022-08-20T03:24:08;101621.50;;;15.19;100.00
44140;BME280;29803;51.048;4.686;2022-08-20T03:26:39;101622.81;;;15.23;100.00
44140;BME280;29803;51.048;4.686;2022-08-20T03:29:10;101611.63;;;15.26;100.00
44140;BME280;29803;51.048;4.686;2022-08-20T03:31:41;101613.16;;;15.28;100.00
44140;BME280;29803;51.048;4.686;2022-08-20T03:34:11;101625.94;;;15.35;100.00
44140;BME280;29803;51.048;4.686;2022-08-20T03:36:42;101618.97;;;15.40;100.00
44140;BME280;29803;51.048;4.686;2022-08-20T03:39:12;101631.97;;;15.45;100.00
44140;BME280;29803;51.048;4.686;2022-08-20T03:41:43;101628.25;;;15.46;100.00
44140;BME280;29803;51.048;4.686;2022-08-20T03:44:13;101637.69;;;15.50;100.00
44140;BME280;29803;51.048;4.686;2022-08-20T03:46:44;101631.72;;;15.54;100.00
44140;BME280;29803;51.048;4.686;2022-08-20T03:49:14;101640.34;;;15.58;100.00
44140;BME280;29803;51.048;4.686;2022-08-20T03:51:45;101646.59;;;15.59;100.00
44140;BME280;29803;51.048;4.686;2022-08-20T03:54:16;101650.13;;;15.59;100.00
44140;BME280;29803;51.048;4.686;2022-08-20T03:56:47;101637.25;;;15.61;100.00
44140;BME280;29803;51.048;4.686;2022-08-20T03:59:17;101643.69;;;15.60;100.00
44140;BME280;29803;51.048;4.686;2022-08-20T04:01:48;101636.25;;;15.62;100.00
44140;BME280;29803;51.048;4.686;2022-08-20T04:04:18;101644.03;;;15.65;100.00
44140;BME280;29803;51.048;4.686;2022-08-20T04:06:49;101648.25;;;15.68;100.00
44140;BME280;29803;51.048;4.686;2022-08-20T04:09:20;101650.97;;;15.68;100.00
44140;BME280;29803;51.048;4.686;2022-08-20T04:11:51;101652.63;;;15.69;100.00
44140;BME280;29803;51.048;4.686;2022-08-20T04:14:22;101651.78;;;15.68;100.00
44140;BME280;29803;51.048;4.686;2022-08-20T04:16:53;101649.28;;;15.67;100.00
44140;BME280;29803;51.048;4.686;2022-08-20T04:19:23;101657.56;;;15.65;100.00
44140;BME280;29803;51.048;4.686;2022-08-20T04:21:54;101654.84;;;15.65;100.00
44140;BME280;29803;51.048;4.686;2022-08-20T04:24:25;101662.81;;;15.67;100.00
44140;BME280;29803;51.048;4.686;2022-08-20T04:26:57;101658.56;;;15.64;100.00
44140;BME280;29803;51.048;4.686;2022-08-20T04:29:28;101658.06;;;15.61;100.00
44140;BME280;29803;51.048;4.686;2022-08-20T04:32:00;101660.59;;;15.62;100.00
44140;BME280;29803;51.048;4.686;2022-08-20T04:34:32;101667.19;;;15.60;100.00
44140;BME280;29803;51.048;4.686;2022-08-20T04:37:03;101663.66;;;15.59;100.00
44140;BME280;29803;51.048;4.686;2022-08-20T04:39:34;101664.50;;;15.60;100.00
44140;BME280;29803;51.048;4.686;2022-08-20T04:42:05;101665.00;;;15.63;100.00
44140;BME280;29803;51.048;4.686;2022-08-20T04:44:35;101671.06;;;15.65;100.00
44140;BME280;29803;51.048;4.686;2022-08-20T04:47:06;101667.84;;;15.70;100.00
44140;BME280;29803;51.048;4.686;2022-08-20T04:49:37;101676.13;;;15.68;100.00
44140;BME280;29803;51.048;4.686;2022-08-20T04:52:08;101669.69;;;15.69;100.00
44140;BME280;29803;51.048;4.686;2022-08-20T04:54:39;101682.56;;;15.67;100.00
44140;BME280;29803;51.048;4.686;2022-08-20T04:57:10;101680.03;;;15.66;100.00
44140;BME280;29803;51.048;4.686;2022-08-20T04:59:40;101687.78;;;15.69;100.00
44140;BME280;29803;51.048;4.686;2022-08-20T05:02:11;101683.22;;;15.69;100.00
44140;BME280;29803;51.048;4.686;2022-08-20T05:04:41;101687.78;;;15.69;100.00
44140;BME280;29803;51.048;4.686;2022-08-20T05:07:14;101684.44;;;15.67;100.00
44140;BME280;29803;51.048;4.686;2022-08-20T05:09:44;101690.00;;;15.65;100.00
44140;BME280;29803;51.048;4.686;2022-08-20T05:12:15;101698.81;;;15.67;100.00
44140;BME280;29803;51.048;4.686;2022-08-20T05:14:47;101702.34;;;15.68;100.00
44140;BME280;29803;51.048;4.686;2022-08-20T05:17:17;101694.22;;;15.68;100.00
44140;BME280;29803;51.048;4.686;2022-08-20T05:19:50;101690.50;;;15.69;100.00
44140;BME280;29803;51.048;4.686;2022-08-20T05:22:21;101693.69;;;15.72;100.00
44140;BME280;29803;51.048;4.686;2022-08-20T05:24:52;101702.66;;;15.73;100.00
44140;BME280;29803;51.048;4.686;2022-08-20T05:27:22;101705.16;;;15.74;100.00
44140;BME280;29803;51.048;4.686;2022-08-20T05:30:13;101705.34;;;15.73;100.00
44140;BME280;29803;51.048;4.686;2022-08-20T05:32:43;101710.38;;;15.76;100.00
44140;BME280;29803;51.048;4.686;2022-08-20T05:35:18;101714.63;;;15.78;100.00
44140;BME280;29803;51.048;4.686;2022-08-20T05:37:48;101711.59;;;15.73;100.00
44140;BME280;29803;51.048;4.686;2022-08-20T05:40:19;101717.31;;;15.78;100.00
44140;BME280;29803;51.048;4.686;2022-08-20T05:42:51;101715.47;;;15.79;100.00
44140;BME280;29803;51.048;4.686;2022-08-20T05:45:23;101718.66;;;15.83;100.00
44140;BME280;29803;51.048;4.686;2022-08-20T05:47:53;101728.94;;;15.87;100.00
44140;BME280;29803;51.048;4.686;2022-08-20T05:50:24;101727.91;;;15.88;100.00
44140;BME280;29803;51.048;4.686;2022-08-20T05:52:55;101726.03;;;15.89;100.00
44140;BME280;29803;51.048;4.686;2022-08-20T05:55:26;101731.13;;;15.92;100.00
44140;BME280;29803;51.048;4.686;2022-08-20T05:57:58;101731.13;;;15.92;100.00
44140;BME280;29803;51.048;4.686;2022-08-20T06:00:30;101735.94;;;15.96;100.00
44140;BME280;29803;51.048;4.686;2022-08-20T06:03:01;101734.13;;;15.97;100.00
44140;BME280;29803;51.048;4.686;2022-08-20T06:05:50;101729.34;;;15.99;100.00
44140;BME280;29803;51.048;4.686;2022-08-20T06:08:21;101725.63;;;16.00;100.00
44140;BME280;29803;51.048;4.686;2022-08-20T06:10:52;101733.75;;;16.00;100.00
44140;BME280;29803;51.048;4.686;2022-08-20T06:13:23;101730.69;;;16.03;100.00
44140;BME280;29803;51.048;4.686;2022-08-20T06:15:55;101736.59;;;16.07;100.00
44140;BME280;29803;51.048;4.686;2022-08-20T06:18:26;101726.91;;;16.12;100.00
44140;BME280;29803;51.048;4.686;2022-08-20T06:20:56;101733.31;;;16.11;100.00
44140;BME280;29803;51.048;4.686;2022-08-20T06:23:27;101737.34;;;16.15;100.00
44140;BME280;29803;51.048;4.686;2022-08-20T06:25:57;101734.09;;;16.20;100.00
44140;BME280;29803;51.048;4.686;2022-08-20T06:28:28;101734.78;;;16.22;100.00
44140;BME280;29803;51.048;4.686;2022-08-20T06:30:58;101729.53;;;16.20;100.00
44140;BME280;29803;51.048;4.686;2022-08-20T06:33:29;101730.19;;;16.22;100.00
44140;BME280;29803;51.048;4.686;2022-08-20T06:35:59;101728.78;;;16.26;100.00
44140;BME280;29803;51.048;4.686;2022-08-20T06:38:30;101730.00;;;16.24;100.00
44140;BME280;29803;51.048;4.686;2022-08-20T06:41:02;101726.25;;;16.25;100.00
44140;BME280;29803;51.048;4.686;2022-08-20T06:43:32;101726.06;;;16.26;100.00
44140;BME280;29803;51.048;4.686;2022-08-20T06:46:03;101729.09;;;16.31;100.00
44140;BME280;29803;51.048;4.686;2022-08-20T06:48:35;101728.63;;;16.28;100.00
44140;BME280;29803;51.048;4.686;2022-08-20T06:51:06;101735.81;;;16.36;100.00
44140;BME280;29803;51.048;4.686;2022-08-20T06:53:36;101740.03;;;16.38;100.00
44140;BME280;29803;51.048;4.686;2022-08-20T06:56:08;101738.56;;;16.50;100.00
44140;BME280;29803;51.048;4.686;2022-08-20T06:58:38;101743.06;;;16.58;100.00
44140;BME280;29803;51.048;4.686;2022-08-20T07:01:10;101740.47;;;16.65;100.00
44140;BME280;29803;51.048;4.686;2022-08-20T07:03:41;101745.13;;;16.71;100.00
44140;BME280;29803;51.048;4.686;2022-08-20T07:06:12;101741.25;;;16.73;100.00
44140;BME280;29803;51.048;4.686;2022-08-20T07:08:43;101740.03;;;16.76;100.00
44140;BME280;29803;51.048;4.686;2022-08-20T07:11:13;101751.44;;;16.86;100.00
44140;BME280;29803;51.048;4.686;2022-08-20T07:13:44;101756.16;;;16.92;100.00
44140;BME280;29803;51.048;4.686;2022-08-20T07:16:15;101750.44;;;17.02;100.00
44140;BME280;29803;51.048;4.686;2022-08-20T07:18:45;101759.88;;;17.06;100.00
44140;BME280;29803;51.048;4.686;2022-08-20T07:21:16;101760.81;;;17.13;100.00
44140;BME280;29803;51.048;4.686;2022-08-20T07:23:46;101758.66;;;17.23;100.00
44140;BME280;29803;51.048;4.686;2022-08-20T07:26:18;101758.19;;;17.34;100.00
44140;BME280;29803;51.048;4.686;2022-08-20T07:28:49;101754.97;;;17.46;100.00
44140;BME280;29803;51.048;4.686;2022-08-20T07:31:19;101759.84;;;17.50;100.00
44140;BME280;29803;51.048;4.686;2022-08-20T07:34:09;101766.91;;;17.66;100.00
44140;BME280;29803;51.048;4.686;2022-08-20T07:36:40;101764.41;;;17.79;100.00
44140;BME280;29803;51.048;4.686;2022-08-20T07:39:11;101767.00;;;17.88;100.00
44140;BME280;29803;51.048;4.686;2022-08-20T07:41:41;101767.91;;;18.16;100.00
44140;BME280;29803;51.048;4.686;2022-08-20T07:44:12;101769.47;;;18.25;100.00
44140;BME280;29803;51.048;4.686;2022-08-20T07:46:42;101772.38;;;18.45;100.00
44140;BME280;29803;51.048;4.686;2022-08-20T07:49:13;101768.94;;;19.21;100.00
44140;BME280;29803;51.048;4.686;2022-08-20T07:51:43;101764.47;;;19.96;100.00
44140;BME280;29803;51.048;4.686;2022-08-20T07:54:14;101771.47;;;20.71;100.00
44140;BME280;29803;51.048;4.686;2022-08-20T07:56:44;101772.84;;;21.13;100.00
44140;BME280;29803;51.048;4.686;2022-08-20T07:59:15;101760.22;;;21.84;100.00
44140;BME280;29803;51.048;4.686;2022-08-20T08:01:45;101762.22;;;22.58;100.00
44140;BME280;29803;51.048;4.686;2022-08-20T08:04:16;101765.78;;;22.84;100.00
44140;BME280;29803;51.048;4.686;2022-08-20T08:06:46;101769.50;;;23.14;100.00
44140;BME280;29803;51.048;4.686;2022-08-20T08:09:17;101770.44;;;23.45;100.00
44140;BME280;29803;51.048;4.686;2022-08-20T08:11:48;101768.66;;;23.32;100.00
44140;BME280;29803;51.048;4.686;2022-08-20T08:14:21;101771.47;;;23.44;100.00
44140;BME280;29803;51.048;4.686;2022-08-20T08:16:59;101774.44;;;23.42;100.00
44140;BME280;29803;51.048;4.686;2022-08-20T08:19:35;101775.59;;;23.16;100.00
44140;BME280;29803;51.048;4.686;2022-08-20T08:22:10;101767.75;;;23.75;100.00
44140;BME280;29803;51.048;4.686;2022-08-20T08:24:43;101773.97;;;24.24;100.00
44140;BME280;29803;51.048;4.686;2022-08-20T08:27:16;101775.75;;;24.95;100.00
44140;BME280;29803;51.048;4.686;2022-08-20T08:29:47;101778.63;;;25.00;100.00
44140;BME280;29803;51.048;4.686;2022-08-20T08:32:18;101771.09;;;24.84;100.00
44140;BME280;29803;51.048;4.686;2022-08-20T08:34:49;101771.56;;;25.28;100.00
44140;BME280;29803;51.048;4.686;2022-08-20T08:37:19;101775.75;;;25.71;100.00
44140;BME280;29803;51.048;4.686;2022-08-20T08:39:50;101782.09;;;25.60;100.00
44140;BME280;29803;51.048;4.686;2022-08-20T08:42:27;101778.19;;;25.96;100.00
44140;BME280;29803;51.048;4.686;2022-08-20T08:45:06;101780.50;;;26.49;100.00
44140;BME280;29803;51.048;4.686;2022-08-20T08:47:38;101778.47;;;26.11;100.00
44140;BME280;29803;51.048;4.686;2022-08-20T08:53:04;101780.38;;;25.30;100.00
44140;BME280;29803;51.048;4.686;2022-08-20T08:55:35;101780.94;;;25.55;100.00
44140;BME280;29803;51.048;4.686;2022-08-20T08:58:05;101783.72;;;25.84;100.00
44140;BME280;29803;51.048;4.686;2022-08-20T09:00:36;101774.25;;;26.71;100.00
44140;BME280;29803;51.048;4.686;2022-08-20T09:03:10;101779.44;;;26.50;100.00
44140;BME280;29803;51.048;4.686;2022-08-20T09:06:01;101777.75;;;26.83;100.00
44140;BME280;29803;51.048;4.686;2022-08-20T09:08:43;101791.78;;;26.65;100.00
44140;BME280;29803;51.048;4.686;2022-08-20T09:11:18;101779.09;;;26.64;100.00
44140;BME280;29803;51.048;4.686;2022-08-20T09:13:50;101785.09;;;26.60;100.00
44140;BME280;29803;51.048;4.686;2022-08-20T09:16:24;101782.50;;;26.71;100.00
44140;BME280;29803;51.048;4.686;2022-08-20T09:18:55;101781.88;;;27.63;100.00
44140;BME280;29803;51.048;4.686;2022-08-20T09:21:25;101783.91;;;26.90;100.00
44140;BME280;29803;51.048;4.686;2022-08-20T09:23:56;101779.44;;;27.45;100.00
44140;BME280;29803;51.048;4.686;2022-08-20T09:26:26;101777.75;;;27.66;100.00
44140;BME280;29803;51.048;4.686;2022-08-20T09:28:57;101774.06;;;27.33;100.00
44140;BME280;29803;51.048;4.686;2022-08-20T09:31:27;101781.13;;;27.68;89.74
44140;BME280;29803;51.048;4.686;2022-08-20T09:33:58;101779.53;;;27.99;88.53
44140;BME280;29803;51.048;4.686;2022-08-20T09:36:28;101774.59;;;27.52;97.23
44140;BME280;29803;51.048;4.686;2022-08-20T09:39:00;101768.16;;;27.68;87.12
44140;BME280;29803;51.048;4.686;2022-08-20T09:41:31;101777.06;;;27.75;78.74
44140;BME280;29803;51.048;4.686;2022-08-20T09:44:02;101775.06;;;27.93;79.55
44140;BME280;29803;51.048;4.686;2022-08-20T09:46:32;101774.25;;;27.92;78.58
44140;BME280;29803;51.048;4.686;2022-08-20T09:49:03;101768.72;;;28.19;73.92
44140;BME280;29803;51.048;4.686;2022-08-20T09:51:33;101774.06;;;27.55;76.12
44140;BME280;29803;51.048;4.686;2022-08-20T09:54:04;101771.59;;;26.59;83.79
44140;BME280;29803;51.048;4.686;2022-08-20T09:56:35;101777.06;;;25.68;92.22
44140;BME280;29803;51.048;4.686;2022-08-20T09:59:06;101776.94;;;24.99;86.90
44140;BME280;29803;51.048;4.686;2022-08-20T10:01:36;101766.78;;;24.53;86.35
44140;BME280;29803;51.048;4.686;2022-08-20T10:04:07;101774.53;;;24.44;93.23
44140;BME280;29803;51.048;4.686;2022-08-20T10:06:38;101775.75;;;24.60;84.56
44140;BME280;29803;51.048;4.686;2022-08-20T10:09:09;101764.78;;;24.72;88.83
44140;BME280;29803;51.048;4.686;2022-08-20T10:11:40;101769.66;;;24.58;88.06
44140;BME280;29803;51.048;4.686;2022-08-20T10:14:10;101761.59;;;24.21;91.97
44140;BME280;29803;51.048;4.686;2022-08-20T10:16:41;101762.75;;;23.84;94.03
44140;BME280;29803;51.048;4.686;2022-08-20T10:19:11;101766.06;;;23.74;100.00
44140;BME280;29803;51.048;4.686;2022-08-20T10:21:42;101767.41;;;23.83;100.00
44140;BME280;29803;51.048;4.686;2022-08-20T10:24:12;101766.63;;;23.94;100.00
44140;BME280;29803;51.048;4.686;2022-08-20T10:26:43;101768.19;;;24.02;100.00
44140;BME280;29803;51.048;4.686;2022-08-20T10:29:14;101768.84;;;24.16;96.62
44140;BME280;29803;51.048;4.686;2022-08-20T10:31:45;101772.06;;;24.24;100.00
44140;BME280;29803;51.048;4.686;2022-08-20T10:34:15;101777.88;;;24.70;100.00
44140;BME280;29803;51.048;4.686;2022-08-20T10:36:46;101774.09;;;25.18;92.18
44140;BME280;29803;51.048;4.686;2022-08-20T10:39:17;101771.66;;;25.33;87.20
44140;BME280;29803;51.048;4.686;2022-08-20T10:41:47;101766.34;;;25.55;89.53
44140;BME280;29803;51.048;4.686;2022-08-20T10:44:17;101758.38;;;26.11;85.11
44140;BME280;29803;51.048;4.686;2022-08-20T10:46:48;101771.72;;;26.19;79.27
44140;BME280;29803;51.048;4.686;2022-08-20T10:49:18;101763.75;;;26.05;81.04
44140;BME280;29803;51.048;4.686;2022-08-20T10:51:49;101765.91;;;25.87;78.10
44140;BME280;29803;51.048;4.686;2022-08-20T10:54:19;101773.19;;;25.52;82.72
44140;BME280;29803;51.048;4.686;2022-08-20T10:56:50;101774.78;;;24.90;86.17
44140;BME280;29803;51.048;4.686;2022-08-20T10:59:20;101772.66;;;24.80;90.44
44140;BME280;29803;51.048;4.686;2022-08-20T11:01:51;101770.97;;;24.67;90.21
44140;BME280;29803;51.048;4.686;2022-08-20T11:04:21;101763.00;;;24.66;84.49
44140;BME280;29803;51.048;4.686;2022-08-20T11:06:52;101764.78;;;24.84;81.90
44140;BME280;29803;51.048;4.686;2022-08-20T11:09:22;101766.31;;;24.68;85.93
44140;BME280;29803;51.048;4.686;2022-08-20T11:11:53;101757.03;;;24.45;85.94
44140;BME280;29803;51.048;4.686;2022-08-20T11:14:23;101762.94;;;24.31;87.19
44140;BME280;29803;51.048;4.686;2022-08-20T11:16:54;101755.94;;;24.46;94.89
44140;BME280;29803;51.048;4.686;2022-08-20T11:19:24;101763.72;;;24.96;86.35
44140;BME280;29803;51.048;4.686;2022-08-20T11:21:55;101763.00;;;25.13;81.53
44140;BME280;29803;51.048;4.686;2022-08-20T11:24:25;101763.94;;;24.95;82.35
44140;BME280;29803;51.048;4.686;2022-08-20T11:26:56;101766.19;;;24.74;81.04
44140;BME280;29803;51.048;4.686;2022-08-20T11:29:27;101760.81;;;24.44;77.35
44140;BME280;29803;51.048;4.686;2022-08-20T11:31:57;101760.25;;;24.24;80.33
44140;BME280;29803;51.048;4.686;2022-08-20T11:34:28;101768.09;;;24.09;73.34
44140;BME280;29803;51.048;4.686;2022-08-20T11:36:58;101766.31;;;23.72;77.57
44140;BME280;29803;51.048;4.686;2022-08-20T11:39:29;101762.13;;;23.51;80.98
44140;BME280;29803;51.048;4.686;2022-08-20T11:41:59;101760.91;;;23.66;87.14
44140;BME280;29803;51.048;4.686;2022-08-20T11:44:31;101769.31;;;24.13;84.61
44140;BME280;29803;51.048;4.686;2022-08-20T11:47:03;101762.63;;;24.50;80.18
44140;BME280;29803;51.048;4.686;2022-08-20T11:49:35;101756.94;;;24.34;79.43
44140;BME280;29803;51.048;4.686;2022-08-20T11:52:06;101757.72;;;24.52;86.12
44140;BME280;29803;51.048;4.686;2022-08-20T11:54:36;101760.22;;;24.89;89.12
44140;BME280;29803;51.048;4.686;2022-08-20T11:57:09;101763.25;;;25.11;78.26
44140;BME280;29803;51.048;4.686;2022-08-20T11:59:40;101760.31;;;25.29;72.40
44140;BME280;29803;51.048;4.686;2022-08-20T12:02:11;101756.94;;;25.51;69.26
44140;BME280;29803;51.048;4.686;2022-08-20T12:04:41;101754.47;;;25.78;73.15
44140;BME280;29803;51.048;4.686;2022-08-20T12:07:14;101749.00;;;25.95;71.96
44140;BME280;29803;51.048;4.686;2022-08-20T12:09:46;101747.13;;;26.12;71.01
44140;BME280;29803;51.048;4.686;2022-08-20T12:12:18;101756.38;;;26.23;70.24
44140;BME280;29803;51.048;4.686;2022-08-20T12:14:50;101757.94;;;26.47;66.57
44140;BME280;29803;51.048;4.686;2022-08-20T12:17:24;101762.06;;;26.33;66.38
44140;BME280;29803;51.048;4.686;2022-08-20T12:19:58;101764.91;;;26.38;66.98
44140;BME280;29803;51.048;4.686;2022-08-20T12:22:28;101765.38;;;26.35;70.02
44140;BME280;29803;51.048;4.686;2022-08-20T12:24:59;101759.56;;;26.65;64.22
44140;BME280;29803;51.048;4.686;2022-08-20T12:27:30;101759.84;;;26.64;62.43
44140;BME280;29803;51.048;4.686;2022-08-20T12:30:06;101752.81;;;26.73;64.69
44140;BME280;29803;51.048;4.686;2022-08-20T12:32:37;101770.34;;;27.05;60.21
44140;BME280;29803;51.048;4.686;2022-08-20T12:35:09;101769.72;;;26.98;61.94
44140;BME280;29803;51.048;4.686;2022-08-20T12:37:42;101759.50;;;26.77;62.46
44140;BME280;29803;51.048;4.686;2022-08-20T12:40:17;101768.13;;;27.02;60.22
44140;BME280;29803;51.048;4.686;2022-08-20T12:42:48;101762.72;;;27.07;62.25
44140;BME280;29803;51.048;4.686;2022-08-20T12:45:19;101762.09;;;27.44;61.83
44140;BME280;29803;51.048;4.686;2022-08-20T12:47:50;101768.31;;;27.78;60.78
44140;BME280;29803;51.048;4.686;2022-08-20T12:50:22;101768.69;;;27.87;57.30
44140;BME280;29803;51.048;4.686;2022-08-20T12:52:54;101762.66;;;27.24;58.62
44140;BME280;29803;51.048;4.686;2022-08-20T12:55:25;101761.00;;;26.68;59.00
44140;BME280;29803;51.048;4.686;2022-08-20T12:57:58;101754.94;;;26.20;60.32
44140;BME280;29803;51.048;4.686;2022-08-20T13:00:33;101756.75;;;25.81;63.28
44140;BME280;29803;51.048;4.686;2022-08-20T13:03:05;101758.56;;;25.64;66.64
44140;BME280;29803;51.048;4.686;2022-08-20T13:05:37;101750.34;;;25.92;66.43
44140;BME280;29803;51.048;4.686;2022-08-20T13:08:09;101760.28;;;26.10;63.07
44140;BME280;29803;51.048;4.686;2022-08-20T13:10:42;101753.28;;;26.02;64.50
44140;BME280;29803;51.048;4.686;2022-08-20T13:13:16;101755.22;;;26.35;61.90
44140;BME280;29803;51.048;4.686;2022-08-20T13:15:48;101751.72;;;26.40;60.46
44140;BME280;29803;51.048;4.686;2022-08-20T13:18:20;101751.84;;;26.45;63.29
44140;BME280;29803;51.048;4.686;2022-08-20T13:20:50;101752.44;;;26.47;62.01